sensor_id;sensor_type;location;lat;lon;timestamp;P1;durP1;ratioP1;P2;durP2;ratioP2
8177;SDS011;4130;48.740;9.132;2022-09-20T00:00:39;1.30;;;1.20;;
8177;SDS011;4130;48.740;9.132;2022-09-20T00:03:07;1.30;;;1.20;;
8177;SDS011;4130;48.740;9.132;2022-09-20T00:05:35;2.67;;;1.43;;
8177;SDS011;4130;48.740;9.132;2022-09-20T00:08:03;1.90;;;1.20;;
8177;SDS011;4130;48.740;9.132;2022-09-20T00:10:33;1.30;;;1.20;;
8177;SDS011;4130;48.740;9.132;2022-09-20T00:13:02;1.03;;;1.03;;
8177;SDS011;4130;48.740;9.132;2022-09-20T00:15:29;2.50;;;1.13;;
8177;SDS011;4130;48.740;9.132;2022-09-20T00:17:56;1.27;;;1.23;;
8177;SDS011;4130;48.740;9.132;2022-09-20T00:20:23;1.70;;;1.60;;
8177;SDS011;4130;48.740;9.132;2022-09-20T00:22:50;2.63;;;1.50;;
8177;SDS011;4130;48.740;9.132;2022-09-20T00:25:17;1.57;;;1.20;;
8177;SDS011;4130;48.740;9.132;2022-09-20T00:27:48;1.40;;;1.30;;
8177;SDS011;4130;48.740;9.132;2022-09-20T00:30:14;1.33;;;1.20;;
8177;SDS011;4130;48.740;9.132;2022-09-20T00:32:41;1.43;;;1.33;;
8177;SDS011;4130;48.740;9.132;2022-09-20T00:35:08;1.20;;;1.10;;
8177;SDS011;4130;48.740;9.132;2022-09-20T00:37:35;1.30;;;0.80;;
8177;SDS011;4130;48.740;9.132;2022-09-20T00:40:04;1.70;;;1.13;;
8177;SDS011;4130;48.740;9.132;2022-09-20T00:42:32;0.93;;;0.93;;
8177;SDS011;4130;48.740;9.132;2022-09-20T00:45:00;1.83;;;0.90;;
8177;SDS011;4130;48.740;9.132;2022-09-20T00:47:30;2.57;;;1.07;;
8177;SDS011;4130;48.740;9.132;2022-09-20T00:50:04;1.53;;;1.00;;
8177;SDS011;4130;48.740;9.132;2022-09-20T00:52:36;1.10;;;1.10;;
8177;SDS011;4130;48.740;9.132;2022-09-20T00:55:03;1.13;;;1.10;;
8177;SDS011;4130;48.740;9.132;2022-09-20T00:57:32;1.00;;;1.00;;
8177;SDS011;4130;48.740;9.132;2022-09-20T01:00:04;1.53;;;1.30;;
8177;SDS011;4130;48.740;9.132;2022-09-20T01:02:33;1.27;;;1.10;;
8177;SDS011;4130;48.740;9.132;2022-09-20T01:05:04;1.53;;;1.17;;
8177;SDS011;4130;48.740;9.132;2022-09-20T01:07:34;1.60;;;1.10;;
8177;SDS011;4130;48.740;9.132;2022-09-20T01:10:02;1.10;;;1.00;;
8177;SDS011;4130;48.740;9.132;2022-09-20T01:12:29;2.30;;;1.30;;
8177;SDS011;4130;48.740;9.132;2022-09-20T01:14:58;1.33;;;1.07;;
8177;SDS011;4130;48.740;9.132;2022-09-20T01:17:29;1.90;;;1.00;;
8177;SDS011;4130;48.740;9.132;2022-09-20T01:20:04;1.13;;;1.13;;
8177;SDS011;4130;48.740;9.132;2022-09-20T01:22:38;1.47;;;1.17;;
8177;SDS011;4130;48.740;9.132;2022-09-20T01:25:13;1.13;;;1.03;;
8177;SDS011;4130;48.740;9.132;2022-09-20T01:27:44;0.90;;;0.90;;
8177;SDS011;4130;48.740;9.132;2022-09-20T01:30:13;1.77;;;1.10;;
8177;SDS011;4130;48.740;9.132;2022-09-20T01:32:45;0.90;;;0.90;;
8177;SDS011;4130;48.740;9.132;2022-09-20T01:35:19;1.20;;;1.10;;
8177;SDS011;4130;48.740;9.132;2022-09-20T01:37:54;1.07;;;1.07;;
8177;SDS011;4130;48.740;9.132;2022-09-20T01:40:33;1.00;;;1.00;;
8177;SDS011;4130;48.740;9.132;2022-09-20T01:43:07;1.60;;;1.00;;
8177;SDS011;4130;48.740;9.132;2022-09-20T01:45:41;2.20;;;1.00;;
8177;SDS011;4130;48.740;9.132;2022-09-20T01:48:12;0.77;;;0.77;;
8177;SDS011;4130;48.740;9.132;2022-09-20T01:54:04;1.47;;;0.90;;
8177;SDS011;4130;48.740;9.132;2022-09-20T01:56:52;1.20;;;1.07;;
8177;SDS011;4130;48.740;9.132;2022-09-20T01:59:48;1.80;;;1.00;;
8177;SDS011;4130;48.740;9.132;2022-09-20T02:02:32;1.10;;;1.00;;
8177;SDS011;4130;48.740;9.132;2022-09-20T02:05:42;0.90;;;0.90;;
8177;SDS011;4130;48.740;9.132;2022-09-20T02:08:30;1.63;;;1.10;;
8177;SDS011;4130;48.740;9.132;2022-09-20T02:11:08;1.73;;;1.10;;
8177;SDS011;4130;48.740;9.132;2022-09-20T02:13:46;1.13;;;1.03;;
8177;SDS011;4130;48.740;9.132;2022-09-20T02:19:19;1.50;;;0.93;;
8177;SDS011;4130;48.740;9.132;2022-09-20T02:22:03;3.93;;;1.10;;
8177;SDS011;4130;48.740;9.132;2022-09-20T02:24:43;1.67;;;0.93;;
8177;SDS011;4130;48.740;9.132;2022-09-20T02:27:17;1.33;;;1.23;;
8177;SDS011;4130;48.740;9.132;2022-09-20T02:29:56;1.10;;;1.00;;
8177;SDS011;4130;48.740;9.132;2022-09-20T02:32:41;2.33;;;1.00;;
8177;SDS011;4130;48.740;9.132;2022-09-20T02:35:24;3.77;;;1.10;;
8177;SDS011;4130;48.740;9.132;2022-09-20T02:38:04;2.27;;;1.30;;
8177;SDS011;4130;48.740;9.132;2022-09-20T02:40:55;1.00;;;1.00;;
8177;SDS011;4130;48.740;9.132;2022-09-20T02:43:34;2.33;;;1.10;;
8177;SDS011;4130;48.740;9.132;2022-09-20T02:46:09;1.30;;;0.83;;
8177;SDS011;4130;48.740;9.132;2022-09-20T02:48:44;1.77;;;1.10;;
8177;SDS011;4130;48.740;9.132;2022-09-20T02:51:18;1.27;;;1.17;;
8177;SDS011;4130;48.740;9.132;2022-09-20T02:53:51;1.20;;;1.10;;
8177;SDS011;4130;48.740;9.132;2022-09-20T02:56:24;1.87;;;1.20;;
8177;SDS011;4130;48.740;9.132;2022-09-20T02:58:56;1.37;;;1.27;;
8177;SDS011;4130;48.740;9.132;2022-09-20T03:01:31;1.23;;;1.20;;
8177;SDS011;4130;48.740;9.132;2022-09-20T03:04:10;2.53;;;1.47;;
8177;SDS011;4130;48.740;9.132;2022-09-20T03:06:48;1.70;;;1.40;;
8177;SDS011;4130;48.740;9.132;2022-09-20T03:09:22;1.00;;;1.00;;
8177;SDS011;4130;48.740;9.132;2022-09-20T03:11:58;1.23;;;1.03;;
8177;SDS011;4130;48.740;9.132;2022-09-20T03:14:30;1.87;;;1.30;;
8177;SDS011;4130;48.740;9.132;2022-09-20T03:17:04;1.07;;;0.97;;
8177;SDS011;4130;48.740;9.132;2022-09-20T03:19:55;1.63;;;1.03;;
8177;SDS011;4130;48.740;9.132;2022-09-20T03:22:35;2.57;;;1.20;;
8177;SDS011;4130;48.740;9.132;2022-09-20T03:28:26;1.10;;;1.10;;
8177;SDS011;4130;48.740;9.132;2022-09-20T03:31:05;2.83;;;1.17;;
8177;SDS011;4130;48.740;9.132;2022-09-20T03:33:43;1.30;;;1.20;;
8177;SDS011;4130;48.740;9.132;2022-09-20T03:36:24;1.47;;;1.20;;
8177;SDS011;4130;48.740;9.132;2022-09-20T03:39:12;1.40;;;1.30;;
8177;SDS011;4130;48.740;9.132;2022-09-20T03:41:53;1.10;;;1.00;;
8177;SDS011;4130;48.740;9.132;2022-09-20T03:44:44;1.67;;;1.30;;
8177;SDS011;4130;48.740;9.132;2022-09-20T03:47:26;3.03;;;1.50;;
8177;SDS011;4130;48.740;9.132;2022-09-20T03:50:11;1.17;;;1.17;;
8177;SDS011;4130;48.740;9.132;2022-09-20T03:53:13;3.60;;;1.43;;
8177;SDS011;4130;48.740;9.132;2022-09-20T03:55:56;1.40;;;1.30;;
8177;SDS011;4130;48.740;9.132;2022-09-20T03:58:41;2.07;;;1.03;;
8177;SDS011;4130;48.740;9.132;2022-09-20T04:01:28;1.13;;;1.10;;
8177;SDS011;4130;48.740;9.132;2022-09-20T04:04:06;1.40;;;1.27;;
8177;SDS011;4130;48.740;9.132;2022-09-20T04:06:52;1.50;;;1.40;;
8177;SDS011;4130;48.740;9.132;2022-09-20T04:09:50;1.20;;;1.10;;
8177;SDS011;4130;48.740;9.132;2022-09-20T04:12:28;1.40;;;1.30;;
8177;SDS011;4130;48.740;9.132;2022-09-20T04:15:13;1.40;;;1.30;;
8177;SDS011;4130;48.740;9.132;2022-09-20T04:17:56;1.47;;;1.20;;
8177;SDS011;4130;48.740;9.132;2022-09-20T04:20:28;1.80;;;1.30;;
8177;SDS011;4130;48.740;9.132;2022-09-20T04:23:07;2.13;;;1.20;;
8177;SDS011;4130;48.740;9.132;2022-09-20T04:25:45;1.10;;;1.10;;
8177;SDS011;4130;48.740;9.132;2022-09-20T04:28:16;2.50;;;1.20;;
8177;SDS011;4130;48.740;9.132;2022-09-20T04:30:50;1.30;;;1.17;;
8177;SDS011;4130;48.740;9.132;2022-09-20T04:33:20;1.23;;;1.20;;
8177;SDS011;4130;48.740;9.132;2022-09-20T04:35:54;1.30;;;1.20;;
8177;SDS011;4130;48.740;9.132;2022-09-20T04:38:50;2.77;;;1.73;;
8177;SDS011;4130;48.740;9.132;2022-09-20T04:41:32;1.57;;;1.20;;
8177;SDS011;4130;48.740;9.132;2022-09-20T04:44:46;1.30;;;1.20;;
8177;SDS011;4130;48.740;9.132;2022-09-20T04:47:40;1.57;;;1.17;;
8177;SDS011;4130;48.740;9.132;2022-09-20T04:50:37;1.70;;;1.17;;
8177;SDS011;4130;48.740;9.132;2022-09-20T04:53:37;2.10;;;1.40;;
8177;SDS011;4130;48.740;9.132;2022-09-20T04:56:19;1.23;;;1.07;;
8177;SDS011;4130;48.740;9.132;2022-09-20T04:59:05;1.73;;;1.63;;
8177;SDS011;4130;48.740;9.132;2022-09-20T05:04:48;2.17;;;1.37;;
8177;SDS011;4130;48.740;9.132;2022-09-20T05:11:11;1.33;;;1.20;;
8177;SDS011;4130;48.740;9.132;2022-09-20T05:14:02;1.10;;;1.10;;
8177;SDS011;4130;48.740;9.132;2022-09-20T05:16:55;1.40;;;1.27;;
8177;SDS011;4130;48.740;9.132;2022-09-20T05:19:37;2.07;;;1.37;;
8177;SDS011;4130;48.740;9.132;2022-09-20T05:22:23;2.07;;;1.30;;
8177;SDS011;4130;48.740;9.132;2022-09-20T05:25:09;1.30;;;1.20;;
8177;SDS011;4130;48.740;9.132;2022-09-20T05:27:52;1.40;;;1.30;;
8177;SDS011;4130;48.740;9.132;2022-09-20T05:30:30;1.83;;;1.33;;
8177;SDS011;4130;48.740;9.132;2022-09-20T05:33:04;1.60;;;1.50;;
8177;SDS011;4130;48.740;9.132;2022-09-20T05:35:42;2.43;;;1.60;;
8177;SDS011;4130;48.740;9.132;2022-09-20T05:38:17;3.90;;;1.40;;
8177;SDS011;4130;48.740;9.132;2022-09-20T05:40:56;1.40;;;1.27;;
8177;SDS011;4130;48.740;9.132;2022-09-20T05:43:33;1.97;;;1.50;;
8177;SDS011;4130;48.740;9.132;2022-09-20T05:46:09;1.30;;;1.20;;
8177;SDS011;4130;48.740;9.132;2022-09-20T05:48:45;1.30;;;1.20;;
8177;SDS011;4130;48.740;9.132;2022-09-20T05:51:26;2.43;;;1.40;;
8177;SDS011;4130;48.740;9.132;2022-09-20T05:54:25;1.63;;;1.50;;
8177;SDS011;4130;48.740;9.132;2022-09-20T05:57:11;1.50;;;1.40;;
8177;SDS011;4130;48.740;9.132;2022-09-20T05:59:50;1.20;;;1.10;;
8177;SDS011;4130;48.740;9.132;2022-09-20T06:02:30;1.70;;;1.60;;
8177;SDS011;4130;48.740;9.132;2022-09-20T06:05:07;1.53;;;1.43;;
8177;SDS011;4130;48.740;9.132;2022-09-20T06:07:50;2.70;;;1.50;;
8177;SDS011;4130;48.740;9.132;2022-09-20T06:10:39;3.87;;;1.63;;
8177;SDS011;4130;48.740;9.132;2022-09-20T06:13:22;1.80;;;1.70;;
8177;SDS011;4130;48.740;9.132;2022-09-20T06:16:01;3.37;;;1.60;;
8177;SDS011;4130;48.740;9.132;2022-09-20T06:18:32;1.87;;;1.20;;
8177;SDS011;4130;48.740;9.132;2022-09-20T06:21:08;1.87;;;1.77;;
8177;SDS011;4130;48.740;9.132;2022-09-20T06:23:43;1.60;;;1.50;;
8177;SDS011;4130;48.740;9.132;2022-09-20T06:26:12;2.10;;;1.63;;
8177;SDS011;4130;48.740;9.132;2022-09-20T06:28:42;2.30;;;1.50;;
8177;SDS011;4130;48.740;9.132;2022-09-20T06:31:12;1.97;;;1.60;;
8177;SDS011;4130;48.740;9.132;2022-09-20T06:33:42;2.53;;;1.60;;
8177;SDS011;4130;48.740;9.132;2022-09-20T06:36:14;1.70;;;1.60;;
8177;SDS011;4130;48.740;9.132;2022-09-20T06:39:02;1.73;;;1.60;;
8177;SDS011;4130;48.740;9.132;2022-09-20T06:41:58;3.57;;;1.80;;
8177;SDS011;4130;48.740;9.132;2022-09-20T06:44:26;2.17;;;1.97;;
8177;SDS011;4130;48.740;9.132;2022-09-20T06:46:52;3.03;;;1.70;;
8177;SDS011;4130;48.740;9.132;2022-09-20T06:49:21;1.60;;;1.50;;
8177;SDS011;4130;48.740;9.132;2022-09-20T06:51:48;2.10;;;1.67;;
8177;SDS011;4130;48.740;9.132;2022-09-20T06:54:15;1.80;;;1.50;;
8177;SDS011;4130;48.740;9.132;2022-09-20T06:56:44;2.60;;;1.70;;
8177;SDS011;4130;48.740;9.132;2022-09-20T06:59:12;1.73;;;1.63;;
8177;SDS011;4130;48.740;9.132;2022-09-20T07:01:39;3.80;;;1.70;;
8177;SDS011;4130;48.740;9.132;2022-09-20T07:04:06;1.97;;;1.60;;
8177;SDS011;4130;48.740;9.132;2022-09-20T07:06:35;2.27;;;1.70;;
8177;SDS011;4130;48.740;9.132;2022-09-20T07:09:01;2.50;;;1.87;;
8177;SDS011;4130;48.740;9.132;2022-09-20T07:11:29;2.47;;;1.63;;
8177;SDS011;4130;48.740;9.132;2022-09-20T07:13:58;2.57;;;1.90;;
8177;SDS011;4130;48.740;9.132;2022-09-20T07:16:25;2.40;;;1.90;;
8177;SDS011;4130;48.740;9.132;2022-09-20T07:18:51;1.70;;;1.57;;
8177;SDS011;4130;48.740;9.132;2022-09-20T07:21:19;3.40;;;1.67;;
8177;SDS011;4130;48.740;9.132;2022-09-20T07:23:47;2.53;;;1.67;;
8177;SDS011;4130;48.740;9.132;2022-09-20T07:26:16;2.67;;;1.80;;
8177;SDS011;4130;48.740;9.132;2022-09-20T07:28:45;2.23;;;1.60;;
8177;SDS011;4130;48.740;9.132;2022-09-20T07:31:12;1.60;;;1.50;;
8177;SDS011;4130;48.740;9.132;2022-09-20T07:33:39;1.50;;;1.40;;
8177;SDS011;4130;48.740;9.132;2022-09-20T07:36:06;5.57;;;1.90;;
8177;SDS011;4130;48.740;9.132;2022-09-20T07:38:33;4.60;;;1.63;;
8177;SDS011;4130;48.740;9.132;2022-09-20T07:41:01;4.97;;;1.80;;
8177;SDS011;4130;48.740;9.132;2022-09-20T07:43:28;2.23;;;1.77;;
8177;SDS011;4130;48.740;9.132;2022-09-20T07:45:55;4.10;;;1.80;;
8177;SDS011;4130;48.740;9.132;2022-09-20T07:48:24;1.60;;;1.50;;
8177;SDS011;4130;48.740;9.132;2022-09-20T07:50:53;2.33;;;1.60;;
8177;SDS011;4130;48.740;9.132;2022-09-20T07:53:21;2.10;;;1.63;;
8177;SDS011;4130;48.740;9.132;2022-09-20T07:55:55;2.17;;;1.80;;
8177;SDS011;4130;48.740;9.132;2022-09-20T07:58:24;3.87;;;2.10;;
8177;SDS011;4130;48.740;9.132;2022-09-20T08:00:52;2.33;;;1.60;;
8177;SDS011;4130;48.740;9.132;2022-09-20T08:03:19;1.83;;;1.63;;
8177;SDS011;4130;48.740;9.132;2022-09-20T08:05:46;2.97;;;1.80;;
8177;SDS011;4130;48.740;9.132;2022-09-20T08:08:14;3.47;;;1.80;;
8177;SDS011;4130;48.740;9.132;2022-09-20T08:10:41;4.97;;;1.50;;
8177;SDS011;4130;48.740;9.132;2022-09-20T08:13:08;2.53;;;1.40;;
8177;SDS011;4130;48.740;9.132;2022-09-20T08:15:37;1.20;;;1.10;;
8177;SDS011;4130;48.740;9.132;2022-09-20T08:18:04;1.63;;;1.20;;
8177;SDS011;4130;48.740;9.132;2022-09-20T08:20:33;2.17;;;1.33;;
8177;SDS011;4130;48.740;9.132;2022-09-20T08:23:01;2.20;;;1.10;;
8177;SDS011;4130;48.740;9.132;2022-09-20T08:25:27;2.30;;;1.30;;
8177;SDS011;4130;48.740;9.132;2022-09-20T08:27:54;0.90;;;0.90;;
8177;SDS011;4130;48.740;9.132;2022-09-20T08:30:21;3.40;;;1.10;;
8177;SDS011;4130;48.740;9.132;2022-09-20T08:32:49;2.87;;;1.10;;
8177;SDS011;4130;48.740;9.132;2022-09-20T08:35:20;1.80;;;1.10;;
8177;SDS011;4130;48.740;9.132;2022-09-20T08:37:49;3.60;;;1.20;;
8177;SDS011;4130;48.740;9.132;2022-09-20T08:40:18;2.37;;;1.07;;
8177;SDS011;4130;48.740;9.132;2022-09-20T08:42:48;2.57;;;1.10;;
8177;SDS011;4130;48.740;9.132;2022-09-20T08:45:16;3.07;;;1.00;;
8177;SDS011;4130;48.740;9.132;2022-09-20T08:47:45;2.40;;;1.10;;
8177;SDS011;4130;48.740;9.132;2022-09-20T08:50:16;3.10;;;1.10;;
8177;SDS011;4130;48.740;9.132;2022-09-20T08:52:44;1.70;;;1.13;;
8177;SDS011;4130;48.740;9.132;2022-09-20T08:55:14;3.67;;;0.87;;
8177;SDS011;4130;48.740;9.132;2022-09-20T08:57:43;2.83;;;1.10;;
8177;SDS011;4130;48.740;9.132;2022-09-20T09:00:14;1.57;;;1.13;;
8177;SDS011;4130;48.740;9.132;2022-09-20T09:02:43;2.57;;;1.13;;
8177;SDS011;4130;48.740;9.132;2022-09-20T09:05:15;3.90;;;1.10;;
8177;SDS011;4130;48.740;9.132;2022-09-20T09:07:59;2.40;;;1.70;;
8177;SDS011;4130;48.740;9.132;2022-09-20T09:10:29;3.10;;;1.20;;
8177;SDS011;4130;48.740;9.132;2022-09-20T09:13:01;1.63;;;1.00;;
8177;SDS011;4130;48.740;9.132;2022-09-20T09:15:30;1.57;;;1.10;;
8177;SDS011;4130;48.740;9.132;2022-09-20T09:17:59;2.07;;;1.03;;
8177;SDS011;4130;48.740;9.132;2022-09-20T09:20:26;3.60;;;1.00;;
8177;SDS011;4130;48.740;9.132;2022-09-20T09:23:02;3.63;;;1.20;;
8177;SDS011;4130;48.740;9.132;2022-09-20T09:25:35;4.40;;;1.20;;
8177;SDS011;4130;48.740;9.132;2022-09-20T09:28:11;1.87;;;1.10;;
8177;SDS011;4130;48.740;9.132;2022-09-20T09:30:40;3.88;;;1.20;;
8177;SDS011;4130;48.740;9.132;2022-09-20T09:33:15;2.30;;;1.35;;
8177;SDS011;4130;48.740;9.132;2022-09-20T09:35:54;3.63;;;1.38;;
8177;SDS011;4130;48.740;9.132;2022-09-20T09:38:25;1.05;;;0.85;;
8177;SDS011;4130;48.740;9.132;2022-09-20T09:40:53;3.35;;;0.93;;
8177;SDS011;4130;48.740;9.132;2022-09-20T09:43:22;2.97;;;1.05;;
8177;SDS011;4130;48.740;9.132;2022-09-20T09:45:52;4.35;;;1.02;;
8177;SDS011;4130;48.740;9.132;2022-09-20T09:48:21;1.25;;;0.75;;
8177;SDS011;4130;48.740;9.132;2022-09-20T09:50:54;1.60;;;1.17;;
8177;SDS011;4130;48.740;9.132;2022-09-20T09:53:35;2.88;;;1.25;;
8177;SDS011;4130;48.740;9.132;2022-09-20T09:56:19;1.88;;;1.30;;
8177;SDS011;4130;48.740;9.132;2022-09-20T09:59:08;2.80;;;0.93;;
8177;SDS011;4130;48.740;9.132;2022-09-20T10:01:53;4.85;;;1.13;;
8177;SDS011;4130;48.740;9.132;2022-09-20T10:04:30;3.38;;;1.25;;
8177;SDS011;4130;48.740;9.132;2022-09-20T10:07:03;2.30;;;1.30;;
8177;SDS011;4130;48.740;9.132;2022-09-20T10:09:43;1.33;;;0.97;;
8177;SDS011;4130;48.740;9.132;2022-09-20T10:12:22;2.33;;;1.10;;
8177;SDS011;4130;48.740;9.132;2022-09-20T10:15:01;2.30;;;1.20;;
8177;SDS011;4130;48.740;9.132;2022-09-20T10:17:45;2.13;;;1.10;;
8177;SDS011;4130;48.740;9.132;2022-09-20T10:20:30;2.40;;;1.20;;
8177;SDS011;4130;48.740;9.132;2022-09-20T10:23:14;3.93;;;1.50;;
8177;SDS011;4130;48.740;9.132;2022-09-20T10:25:55;3.65;;;1.20;;
8177;SDS011;4130;48.740;9.132;2022-09-20T10:28:31;5.70;;;1.70;;
8177;SDS011;4130;48.740;9.132;2022-09-20T10:31:15;2.17;;;1.02;;
8177;SDS011;4130;48.740;9.132;2022-09-20T10:33:55;5.07;;;1.30;;
8177;SDS011;4130;48.740;9.132;2022-09-20T10:36:37;4.50;;;1.15;;
8177;SDS011;4130;48.740;9.132;2022-09-20T10:39:10;2.85;;;1.17;;
8177;SDS011;4130;48.740;9.132;2022-09-20T10:41:45;2.10;;;0.85;;
8177;SDS011;4130;48.740;9.132;2022-09-20T10:44:48;1.17;;;0.75;;
8177;SDS011;4130;48.740;9.132;2022-09-20T10:47:25;2.97;;;1.20;;
8177;SDS011;4130;48.740;9.132;2022-09-20T10:49:59;1.83;;;1.10;;
8177;SDS011;4130;48.740;9.132;2022-09-20T10:52:39;2.00;;;0.90;;
8177;SDS011;4130;48.740;9.132;2022-09-20T10:55:23;1.25;;;1.00;;
8177;SDS011;4130;48.740;9.132;2022-09-20T10:58:08;1.92;;;0.95;;
8177;SDS011;4130;48.740;9.132;2022-09-20T11:01:00;2.40;;;1.03;;
8177;SDS011;4130;48.740;9.132;2022-09-20T11:03:37;2.90;;;1.20;;
8177;SDS011;4130;48.740;9.132;2022-09-20T11:06:22;3.47;;;0.90;;
8177;SDS011;4130;48.740;9.132;2022-09-20T11:08:56;2.90;;;1.10;;
8177;SDS011;4130;48.740;9.132;2022-09-20T11:11:27;2.53;;;0.97;;
8177;SDS011;4130;48.740;9.132;2022-09-20T11:14:02;1.63;;;1.10;;
8177;SDS011;4130;48.740;9.132;2022-09-20T11:16:34;1.87;;;1.03;;
8177;SDS011;4130;48.740;9.132;2022-09-20T11:19:09;2.60;;;1.08;;
8177;SDS011;4130;48.740;9.132;2022-09-20T11:21:42;1.80;;;1.08;;
8177;SDS011;4130;48.740;9.132;2022-09-20T11:24:16;4.70;;;1.20;;
8177;SDS011;4130;48.740;9.132;2022-09-20T11:26:53;3.78;;;1.20;;
8177;SDS011;4130;48.740;9.132;2022-09-20T11:29:26;1.83;;;1.08;;
8177;SDS011;4130;48.740;9.132;2022-09-20T11:31:59;0.80;;;0.80;;
8177;SDS011;4130;48.740;9.132;2022-09-20T11:34:31;1.02;;;0.80;;
8177;SDS011;4130;48.740;9.132;2022-09-20T11:37:01;1.85;;;0.85;;
8177;SDS011;4130;48.740;9.132;2022-09-20T11:39:29;3.30;;;1.35;;
8177;SDS011;4130;48.740;9.132;2022-09-20T11:42:04;1.20;;;0.88;;
8177;SDS011;4130;48.740;9.132;2022-09-20T11:44:39;0.63;;;0.60;;
8177;SDS011;4130;48.740;9.132;2022-09-20T11:47:09;1.95;;;1.05;;
8177;SDS011;4130;48.740;9.132;2022-09-20T11:49:44;2.28;;;1.10;;
8177;SDS011;4130;48.740;9.132;2022-09-20T11:52:28;1.70;;;1.20;;
8177;SDS011;4130;48.740;9.132;2022-09-20T11:55:19;3.00;;;1.20;;
8177;SDS011;4130;48.740;9.132;2022-09-20T11:58:09;0.95;;;0.63;;
8177;SDS011;4130;48.740;9.132;2022-09-20T12:00:42;0.95;;;0.75;;
8177;SDS011;4130;48.740;9.132;2022-09-20T12:03:20;1.48;;;1.20;;
8177;SDS011;4130;48.740;9.132;2022-09-20T12:05:55;2.38;;;1.08;;
8177;SDS011;4130;48.740;9.132;2022-09-20T12:08:23;2.25;;;0.95;;
8177;SDS011;4130;48.740;9.132;2022-09-20T12:10:54;0.88;;;0.80;;
8177;SDS011;4130;48.740;9.132;2022-09-20T12:13:24;1.52;;;0.80;;
8177;SDS011;4130;48.740;9.132;2022-09-20T12:16:00;1.67;;;1.30;;
8177;SDS011;4130;48.740;9.132;2022-09-20T12:18:37;3.22;;;1.25;;
8177;SDS011;4130;48.740;9.132;2022-09-20T12:21:13;1.92;;;1.10;;
8177;SDS011;4130;48.740;9.132;2022-09-20T12:23:45;2.63;;;1.05;;
8177;SDS011;4130;48.740;9.132;2022-09-20T12:26:43;1.20;;;1.10;;
8177;SDS011;4130;48.740;9.132;2022-09-20T12:32:38;1.20;;;1.10;;
8177;SDS011;4130;48.740;9.132;2022-09-20T12:38:36;2.38;;;1.30;;
8177;SDS011;4130;48.740;9.132;2022-09-20T12:41:12;1.25;;;1.15;;
8177;SDS011;4130;48.740;9.132;2022-09-20T12:43:57;1.63;;;1.17;;
8177;SDS011;4130;48.740;9.132;2022-09-20T12:49:19;1.75;;;1.20;;
8177;SDS011;4130;48.740;9.132;2022-09-20T12:55:25;4.07;;;1.10;;
8177;SDS011;4130;48.740;9.132;2022-09-20T12:58:17;1.97;;;1.10;;
8177;SDS011;4130;48.740;9.132;2022-09-20T13:00:49;4.27;;;1.40;;
8177;SDS011;4130;48.740;9.132;2022-09-20T13:03:37;1.83;;;0.80;;
8177;SDS011;4130;48.740;9.132;2022-09-20T13:06:23;2.05;;;0.80;;
8177;SDS011;4130;48.740;9.132;2022-09-20T13:08:51;1.33;;;1.23;;
8177;SDS011;4130;48.740;9.132;2022-09-20T13:11:29;1.85;;;0.93;;
8177;SDS011;4130;48.740;9.132;2022-09-20T13:14:05;1.63;;;1.00;;
8177;SDS011;4130;48.740;9.132;2022-09-20T13:16:38;1.02;;;0.73;;
8177;SDS011;4130;48.740;9.132;2022-09-20T13:19:13;1.52;;;0.88;;
8177;SDS011;4130;48.740;9.132;2022-09-20T13:21:48;3.65;;;1.20;;
8177;SDS011;4130;48.740;9.132;2022-09-20T13:24:19;1.13;;;1.05;;
8177;SDS011;4130;48.740;9.132;2022-09-20T13:26:51;1.77;;;1.00;;
8177;SDS011;4130;48.740;9.132;2022-09-20T13:29:21;1.13;;;0.98;;
8177;SDS011;4130;48.740;9.132;2022-09-20T13:31:52;1.83;;;1.23;;
8177;SDS011;4130;48.740;9.132;2022-09-20T13:34:21;1.23;;;1.13;;
8177;SDS011;4130;48.740;9.132;2022-09-20T13:36:52;2.47;;;1.25;;
8177;SDS011;4130;48.740;9.132;2022-09-20T13:39:25;2.63;;;1.27;;
8177;SDS011;4130;48.740;9.132;2022-09-20T13:42:01;1.92;;;1.33;;
8177;SDS011;4130;48.740;9.132;2022-09-20T13:44:36;1.48;;;0.93;;
8177;SDS011;4130;48.740;9.132;2022-09-20T13:49:49;1.98;;;1.10;;
8177;SDS011;4130;48.740;9.132;2022-09-20T13:52:23;6.05;;;1.83;;
8177;SDS011;4130;48.740;9.132;2022-09-20T13:54:51;2.40;;;1.30;;
8177;SDS011;4130;48.740;9.132;2022-09-20T13:57:20;1.08;;;1.00;;
8177;SDS011;4130;48.740;9.132;2022-09-20T13:59:52;3.03;;;1.10;;
8177;SDS011;4130;48.740;9.132;2022-09-20T14:02:23;2.17;;;1.00;;
8177;SDS011;4130;48.740;9.132;2022-09-20T14:04:52;1.50;;;1.33;;
8177;SDS011;4130;48.740;9.132;2022-09-20T14:07:23;1.85;;;1.05;;
8177;SDS011;4130;48.740;9.132;2022-09-20T14:09:52;7.25;;;1.23;;
8177;SDS011;4130;48.740;9.132;2022-09-20T14:12:20;1.42;;;1.15;;
8177;SDS011;4130;48.740;9.132;2022-09-20T14:14:49;2.55;;;1.30;;
8177;SDS011;4130;48.740;9.132;2022-09-20T14:17:17;2.40;;;1.23;;
8177;SDS011;4130;48.740;9.132;2022-09-20T14:19:47;1.37;;;1.10;;
8177;SDS011;4130;48.740;9.132;2022-09-20T14:22:19;3.47;;;1.10;;
8177;SDS011;4130;48.740;9.132;2022-09-20T14:25:00;2.63;;;1.10;;
8177;SDS011;4130;48.740;9.132;2022-09-20T14:27:30;1.53;;;1.00;;
8177;SDS011;4130;48.740;9.132;2022-09-20T14:29:57;1.93;;;1.03;;
8177;SDS011;4130;48.740;9.132;2022-09-20T14:32:33;1.00;;;0.90;;
8177;SDS011;4130;48.740;9.132;2022-09-20T14:35:04;1.30;;;0.93;;
8177;SDS011;4130;48.740;9.132;2022-09-20T14:37:41;1.17;;;1.07;;
8177;SDS011;4130;48.740;9.132;2022-09-20T14:40:21;2.10;;;0.80;;
8177;SDS011;4130;48.740;9.132;2022-09-20T14:42:50;2.30;;;1.10;;
8177;SDS011;4130;48.740;9.132;2022-09-20T14:45:23;1.63;;;0.90;;
8177;SDS011;4130;48.740;9.132;2022-09-20T14:47:53;3.87;;;1.10;;
8177;SDS011;4130;48.740;9.132;2022-09-20T14:50:23;2.57;;;1.07;;
8177;SDS011;4130;48.740;9.132;2022-09-20T14:53:05;1.30;;;0.80;;
8177;SDS011;4130;48.740;9.132;2022-09-20T14:55:58;2.13;;;1.00;;
8177;SDS011;4130;48.740;9.132;2022-09-20T14:58:58;1.70;;;1.00;;
8177;SDS011;4130;48.740;9.132;2022-09-20T15:01:30;3.23;;;1.17;;
8177;SDS011;4130;48.740;9.132;2022-09-20T15:03:58;3.30;;;1.30;;
8177;SDS011;4130;48.740;9.132;2022-09-20T15:06:30;2.80;;;1.07;;
8177;SDS011;4130;48.740;9.132;2022-09-20T15:09:01;2.73;;;1.23;;
8177;SDS011;4130;48.740;9.132;2022-09-20T15:11:28;1.93;;;0.90;;
8177;SDS011;4130;48.740;9.132;2022-09-20T15:13:55;0.98;;;0.98;;
8177;SDS011;4130;48.740;9.132;2022-09-20T15:16:22;1.83;;;1.10;;
8177;SDS011;4130;48.740;9.132;2022-09-20T15:18:49;1.87;;;1.20;;
8177;SDS011;4130;48.740;9.132;2022-09-20T15:21:16;1.60;;;1.05;;
8177;SDS011;4130;48.740;9.132;2022-09-20T15:23:43;1.07;;;0.97;;
8177;SDS011;4130;48.740;9.132;2022-09-20T15:26:17;0.90;;;0.90;;
8177;SDS011;4130;48.740;9.132;2022-09-20T15:28:46;2.10;;;1.00;;
8177;SDS011;4130;48.740;9.132;2022-09-20T15:31:13;1.43;;;1.10;;
8177;SDS011;4130;48.740;9.132;2022-09-20T15:33:41;1.07;;;0.93;;
8177;SDS011;4130;48.740;9.132;2022-09-20T15:36:08;3.77;;;0.83;;
8177;SDS011;4130;48.740;9.132;2022-09-20T15:38:36;1.13;;;0.93;;
8177;SDS011;4130;48.740;9.132;2022-09-20T15:41:03;1.33;;;0.70;;
8177;SDS011;4130;48.740;9.132;2022-09-20T15:43:32;2.67;;;1.17;;
8177;SDS011;4130;48.740;9.132;2022-09-20T15:46:00;1.20;;;0.80;;
8177;SDS011;4130;48.740;9.132;2022-09-20T15:48:41;2.57;;;1.00;;
8177;SDS011;4130;48.740;9.132;2022-09-20T15:51:08;1.10;;;0.83;;
8177;SDS011;4130;48.740;9.132;2022-09-20T15:53:37;1.40;;;0.90;;
8177;SDS011;4130;48.740;9.132;2022-09-20T15:56:12;1.00;;;1.00;;
8177;SDS011;4130;48.740;9.132;2022-09-20T15:58:44;1.23;;;0.93;;
8177;SDS011;4130;48.740;9.132;2022-09-20T16:01:12;2.17;;;1.00;;
8177;SDS011;4130;48.740;9.132;2022-09-20T16:03:41;2.93;;;1.00;;
8177;SDS011;4130;48.740;9.132;2022-09-20T16:06:08;0.90;;;0.90;;
8177;SDS011;4130;48.740;9.132;2022-09-20T16:08:37;1.13;;;1.03;;
8177;SDS011;4130;48.740;9.132;2022-09-20T16:11:05;1.77;;;1.07;;
8177;SDS011;4130;48.740;9.132;2022-09-20T16:13:34;3.23;;;1.07;;
8177;SDS011;4130;48.740;9.132;2022-09-20T16:16:03;0.90;;;0.90;;
8177;SDS011;4130;48.740;9.132;2022-09-20T16:18:32;3.37;;;1.00;;
8177;SDS011;4130;48.740;9.132;2022-09-20T16:21:19;1.17;;;1.00;;
8177;SDS011;4130;48.740;9.132;2022-09-20T16:23:47;1.50;;;1.07;;
8177;SDS011;4130;48.740;9.132;2022-09-20T16:26:15;1.20;;;1.10;;
8177;SDS011;4130;48.740;9.132;2022-09-20T16:28:43;2.37;;;1.13;;
8177;SDS011;4130;48.740;9.132;2022-09-20T16:44:31;1.93;;;1.37;;
8177;SDS011;4130;48.740;9.132;2022-09-20T16:46:59;1.30;;;1.20;;